createdAt,value
2018-05-10T00:02:14.063Z,58.70
2018-05-10T00:04:47.771Z,58.50
2018-05-10T00:07:22.091Z,58.50
2018-05-10T00:09:55.790Z,58.50
2018-05-10T00:12:29.302Z,58.70
2018-05-10T00:15:03.004Z,58.90
2018-05-10T00:17:36.715Z,58.90
2018-05-10T00:20:10.407Z,58.90
2018-05-10T00:22:44.706Z,59.40
2018-05-10T00:25:19.238Z,59.40
2018-05-10T00:27:52.883Z,59.30
2018-05-10T00:30:26.480Z,59.50
2018-05-10T00:33:00.127Z,59.60
2018-05-10T00:35:33.857Z,59.50
2018-05-10T00:38:07.432Z,59.30
2018-05-10T00:40:41.123Z,59.60
2018-05-10T00:43:14.863Z,59.60
2018-05-10T00:45:48.526Z,59.60
2018-05-10T00:48:22.272Z,59.80
2018-05-10T00:50:55.962Z,59.90
2018-05-10T00:53:29.550Z,59.90
2018-05-10T00:56:03.970Z,61.90
2018-05-10T00:58:37.895Z,61.80
2018-05-10T01:01:11.506Z,61.30
2018-05-10T01:03:45.322Z,61.40
2018-05-10T01:06:19.597Z,61.40
2018-05-10T01:08:53.526Z,61.40
2018-05-10T01:11:27.135Z,61.40
2018-05-10T01:14:00.940Z,62.00
2018-05-10T01:16:34.538Z,62.90
2018-05-10T01:19:08.347Z,64.00
2018-05-10T01:21:42.154Z,64.00
2018-05-10T01:24:16.667Z,64.40
2018-05-10T01:26:50.574Z,64.40
2018-05-10T01:29:24.387Z,65.70
2018-05-10T01:31:58.186Z,65.70
2018-05-10T01:34:31.848Z,65.70
2018-05-10T01:37:05.489Z,65.70
2018-05-10T01:39:39.058Z,65.50
2018-05-10T01:42:12.699Z,65.30
2018-05-10T01:44:46.303Z,65.30
2018-05-10T01:47:19.879Z,64.30
2018-05-10T01:49:53.454Z,65.50
2018-05-10T01:52:27.284Z,65.60
2018-05-10T01:55:01.002Z,65.50
2018-05-10T01:57:35.368Z,65.40
2018-05-10T02:00:08.855Z,65.30
2018-05-10T02:02:42.623Z,65.30
2018-05-10T02:05:17.140Z,65.20
2018-05-10T02:07:50.853Z,65.20
2018-05-10T02:10:25.474Z,65.30
2018-05-10T02:12:59.286Z,65.20
2018-05-10T02:15:33.573Z,65.20
2018-05-10T02:18:07.205Z,65.10
2018-05-10T02:20:40.903Z,65.10
2018-05-10T02:23:15.411Z,65.90
2018-05-10T02:25:48.998Z,65.00
2018-05-10T02:28:23.441Z,65.00
2018-05-10T02:30:57.151Z,65.00
2018-05-10T02:33:30.831Z,65.10
2018-05-10T02:36:05.248Z,65.60
2018-05-10T02:38:38.979Z,65.60
2018-05-10T02:41:13.602Z,66.60
2018-05-10T02:43:47.247Z,66.60
2018-05-10T02:46:21.011Z,65.20
2018-05-10T02:48:54.811Z,65.50
2018-05-10T02:51:28.491Z,65.80
2018-05-10T02:54:02.016Z,65.90
2018-05-10T02:56:36.309Z,65.80
2018-05-10T02:59:10.131Z,65.80
2018-05-10T03:01:44.542Z,66.30
2018-05-10T03:04:19.579Z,66.90
2018-05-10T03:06:53.363Z,66.70
2018-05-10T03:09:27.086Z,66.60
2018-05-10T03:12:00.773Z,66.50
2018-05-10T03:14:34.418Z,66.30
2018-05-10T03:17:08.106Z,66.70
2018-05-10T03:19:41.680Z,66.50
2018-05-10T03:22:16.126Z,66.70
2018-05-10T03:24:49.836Z,66.70
2018-05-10T03:27:23.534Z,67.10
2018-05-10T03:29:57.839Z,67.20
2018-05-10T03:32:31.422Z,66.70
2018-05-10T03:35:05.175Z,66.50
2018-05-10T03:37:39.577Z,67.20
2018-05-10T03:40:13.167Z,67.20
2018-05-10T03:42:46.683Z,67.40
2018-05-10T03:45:20.214Z,68.20
2018-05-10T03:47:53.843Z,67.50
2018-05-10T03:50:27.498Z,67.20
2018-05-10T03:53:01.059Z,67.40
2018-05-10T03:55:34.638Z,67.40
2018-05-10T03:58:08.279Z,67.90
2018-05-10T04:00:41.987Z,67.90
2018-05-10T04:03:51.060Z,67.70
2018-05-10T04:06:37.524Z,68.40
2018-05-10T04:09:23.004Z,69.20
2018-05-10T04:11:56.683Z,68.60
2018-05-10T04:14:31.109Z,68.40
2018-05-10T04:17:04.818Z,68.50
2018-05-10T04:19:38.639Z,68.40
2018-05-10T04:22:12.442Z,68.40
2018-05-10T04:24:46.242Z,69.00
2018-05-10T04:27:20.874Z,68.90
2018-05-10T04:29:54.475Z,68.90
2018-05-10T04:32:28.275Z,69.30
2018-05-10T04:35:02.153Z,69.00
2018-05-10T04:37:35.889Z,68.90
2018-05-10T04:40:09.488Z,69.40
2018-05-10T04:42:43.196Z,69.80
2018-05-10T04:45:16.767Z,69.60
2018-05-10T04:47:50.502Z,69.90
2018-05-10T04:50:24.513Z,69.50
2018-05-10T04:52:58.195Z,69.60
2018-05-10T04:55:31.814Z,69.20
2018-05-10T04:58:05.515Z,69.60
2018-05-10T05:00:39.319Z,69.40
2018-05-10T05:03:13.121Z,69.30
2018-05-10T05:05:46.926Z,69.00
2018-05-10T05:08:20.519Z,69.30
2018-05-10T05:10:54.005Z,69.20
2018-05-10T05:13:27.523Z,68.80
2018-05-10T05:16:01.123Z,69.10
2018-05-10T05:18:34.848Z,68.70
2018-05-10T05:21:08.416Z,68.80
2018-05-10T05:23:41.982Z,68.30
2018-05-10T05:26:15.741Z,68.30
2018-05-10T05:28:50.038Z,68.40
2018-05-10T05:31:23.972Z,68.40
2018-05-10T05:33:57.776Z,67.80
2018-05-10T05:36:31.444Z,67.90
2018-05-10T05:39:04.971Z,67.30
2018-05-10T05:41:38.562Z,67.10
2018-05-10T05:44:13.190Z,66.70
2018-05-10T05:46:46.994Z,66.70
2018-05-10T05:49:21.011Z,65.80
2018-05-10T05:51:55.015Z,65.90
2018-05-10T05:54:28.549Z,66.00
2018-05-10T05:57:02.088Z,65.30
2018-05-10T05:59:35.828Z,64.50
2018-05-10T06:02:09.419Z,65.00
2018-05-10T06:04:43.849Z,65.70
2018-05-10T06:07:18.121Z,65.20
2018-05-10T06:09:51.634Z,65.20
2018-05-10T06:12:25.258Z,65.60
2018-05-10T06:14:58.951Z,64.00
2018-05-10T06:17:32.514Z,63.40
2018-05-10T06:20:06.273Z,62.80
2018-05-10T06:22:40.690Z,61.50
2018-05-10T06:25:14.318Z,61.50
2018-05-10T06:27:47.831Z,60.00
2018-05-10T06:30:21.490Z,59.90
2018-05-10T06:32:55.099Z,60.30
2018-05-10T06:35:28.692Z,60.00
2018-05-10T06:38:02.979Z,61.20
2018-05-10T06:40:36.631Z,61.20
2018-05-10T06:43:10.180Z,61.30
2018-05-10T06:45:43.906Z,60.90
2018-05-10T06:48:17.577Z,61.40
2018-05-10T06:50:51.338Z,62.30
2018-05-10T06:53:24.922Z,62.20
2018-05-10T06:55:59.429Z,62.50
2018-05-10T06:58:33.131Z,62.50
2018-05-10T07:01:06.751Z,62.30
2018-05-10T07:03:41.370Z,62.90
2018-05-10T07:06:15.175Z,62.80
2018-05-10T07:08:48.782Z,63.10
2018-05-10T07:11:22.590Z,63.30
2018-05-10T07:13:56.391Z,63.40
2018-05-10T07:16:30.106Z,63.50
2018-05-10T07:19:03.711Z,63.90
2018-05-10T07:21:37.398Z,63.80
2018-05-10T07:24:10.990Z,64.10
2018-05-10T07:26:44.681Z,64.60
2018-05-10T07:29:18.610Z,63.30
2018-05-10T07:31:52.419Z,63.50
2018-05-10T07:34:26.219Z,63.50
2018-05-10T07:37:00.549Z,63.10
2018-05-10T07:39:35.882Z,62.90
2018-05-10T07:42:09.795Z,62.90
2018-05-10T07:44:44.108Z,62.70
2018-05-10T07:47:17.827Z,62.80
2018-05-10T07:49:51.458Z,62.10
2018-05-10T07:52:25.822Z,62.40
2018-05-10T07:54:59.739Z,61.40
2018-05-10T07:57:33.742Z,61.80
2018-05-10T08:00:07.370Z,62.50
2018-05-10T08:02:41.032Z,61.80
2018-05-10T08:05:14.608Z,61.40
2018-05-10T08:07:48.350Z,60.90
2018-05-10T08:10:22.075Z,61.60
2018-05-10T08:12:55.655Z,61.10
2018-05-10T08:15:29.222Z,61.20
2018-05-10T08:18:02.879Z,61.10
2018-05-10T08:20:36.636Z,61.10
2018-05-10T08:23:10.282Z,60.80
2018-05-10T08:25:43.974Z,61.30
2018-05-10T08:28:17.586Z,61.10
2018-05-10T08:30:51.387Z,62.90
2018-05-10T08:33:25.699Z,62.00
2018-05-10T08:36:00.214Z,62.30
2018-05-10T08:38:33.906Z,62.10
2018-05-10T08:41:07.495Z,62.10
2018-05-10T08:43:41.217Z,62.30
2018-05-10T08:46:14.831Z,61.80
2018-05-10T08:48:48.522Z,62.00
2018-05-10T08:51:22.042Z,61.70
2018-05-10T08:53:55.827Z,63.10
2018-05-10T08:56:29.639Z,62.20
2018-05-10T08:59:04.142Z,59.40
2018-05-10T09:01:38.073Z,59.30
2018-05-10T09:04:12.702Z,59.50
2018-05-10T09:06:46.503Z,59.90
2018-05-10T09:09:20.299Z,59.20
2018-05-10T09:11:54.594Z,58.60
2018-05-10T09:14:28.327Z,58.60
2018-05-10T09:17:02.953Z,58.70
2018-05-10T09:19:37.369Z,58.30
2018-05-10T09:22:11.171Z,58.30
2018-05-10T09:24:44.983Z,57.70
2018-05-10T09:27:19.483Z,57.80
2018-05-10T09:29:53.475Z,57.80
2018-05-10T09:32:27.221Z,57.90
2018-05-10T09:35:00.823Z,58.30
2018-05-10T09:37:34.423Z,58.40
2018-05-10T09:40:08.106Z,58.50
2018-05-10T09:42:41.826Z,56.40
2018-05-10T09:45:15.638Z,56.20
2018-05-10T09:47:49.299Z,56.60
2018-05-10T09:50:23.044Z,56.20
2018-05-10T09:52:56.643Z,56.10
2018-05-10T09:55:30.465Z,55.20
2018-05-10T09:58:04.241Z,55.10
2018-05-10T10:00:38.661Z,55.20
2018-05-10T10:03:12.477Z,55.10
2018-05-10T10:05:47.097Z,55.90
2018-05-10T10:08:20.770Z,55.90
2018-05-10T10:10:54.507Z,55.20
2018-05-10T10:13:28.023Z,54.10
2018-05-10T10:16:01.906Z,55.20
2018-05-10T10:18:37.152Z,55.60
2018-05-10T10:21:10.787Z,55.50
2018-05-10T10:23:44.558Z,55.60
2018-05-10T10:26:18.365Z,55.00
2018-05-10T10:28:51.979Z,54.60
2018-05-10T10:31:25.557Z,54.30
2018-05-10T10:33:59.187Z,54.10
2018-05-10T10:36:32.846Z,53.90
2018-05-10T10:39:06.362Z,54.60
2018-05-10T10:41:40.174Z,54.40
2018-05-10T10:44:13.943Z,54.00
2018-05-10T10:46:47.651Z,55.60
2018-05-10T10:49:22.198Z,54.90
2018-05-10T10:51:55.875Z,54.80
2018-05-10T10:54:29.694Z,54.80
2018-05-10T10:57:03.419Z,54.90
2018-05-10T10:59:37.019Z,54.20
2018-05-10T11:02:10.828Z,54.30
2018-05-10T11:04:44.622Z,55.10
2018-05-10T11:07:18.630Z,54.80
2018-05-10T11:09:52.311Z,55.30
2018-05-10T11:12:26.048Z,54.80
2018-05-10T11:14:59.784Z,55.70
2018-05-10T11:17:33.454Z,56.00
2018-05-10T11:20:08.575Z,56.70
2018-05-10T11:22:43.102Z,57.00
2018-05-10T11:25:17.418Z,57.50
2018-05-10T11:27:51.815Z,57.80
2018-05-10T11:30:25.346Z,57.80
2018-05-10T11:32:59.036Z,58.10
2018-05-10T11:35:32.755Z,57.80
2018-05-10T11:38:06.346Z,58.70
2018-05-10T11:40:40.163Z,58.30
2018-05-10T11:43:13.762Z,58.40
2018-05-10T11:45:47.589Z,58.40
2018-05-10T11:48:22.513Z,58.60
2018-05-10T11:50:56.933Z,58.80
2018-05-10T11:53:30.827Z,58.80
2018-05-10T11:56:04.622Z,58.20
2018-05-10T11:58:39.053Z,58.30
2018-05-10T12:01:13.352Z,58.90
2018-05-10T12:03:46.935Z,58.70
2018-05-10T12:06:20.572Z,58.40
2018-05-10T12:08:54.279Z,58.70
2018-05-10T12:11:28.690Z,58.60
2018-05-10T12:14:02.366Z,59.00
2018-05-10T12:16:35.903Z,59.10
2018-05-10T12:19:10.531Z,58.50
2018-05-10T12:21:44.326Z,58.50
2018-05-10T12:24:18.947Z,57.30
2018-05-10T12:26:53.434Z,58.00
2018-05-10T12:29:27.555Z,58.00
2018-05-10T12:32:02.096Z,58.10
2018-05-10T12:34:36.498Z,57.90
2018-05-10T12:37:10.431Z,57.90
2018-05-10T12:39:44.247Z,58.20
2018-05-10T12:42:18.072Z,58.10
2018-05-10T12:44:51.818Z,58.10
2018-05-10T12:47:26.140Z,58.60
2018-05-10T12:49:59.883Z,57.90
2018-05-10T12:52:33.495Z,58.00
2018-05-10T12:55:07.079Z,58.70
2018-05-10T12:57:41.486Z,59.30
2018-05-10T13:00:15.015Z,59.20
2018-05-10T13:02:48.769Z,58.90
2018-05-10T13:05:22.503Z,58.60
2018-05-10T13:07:56.919Z,59.00
2018-05-10T13:10:30.568Z,58.70
2018-05-10T13:13:04.191Z,58.50
2018-05-10T13:15:37.932Z,59.00
2018-05-10T13:18:11.614Z,59.70
2018-05-10T13:20:45.382Z,59.10
2018-05-10T13:23:19.091Z,59.40
2018-05-10T13:25:52.743Z,59.70
2018-05-10T13:28:26.339Z,59.20
2018-05-10T13:31:00.143Z,59.20
2018-05-10T13:33:33.632Z,59.40
2018-05-10T13:36:07.234Z,59.80
2018-05-10T13:38:41.156Z,60.60
2018-05-10T13:41:14.953Z,59.60
2018-05-10T13:43:48.647Z,60.70
2018-05-10T13:46:22.371Z,60.90
2018-05-10T13:48:56.651Z,60.80
2018-05-10T13:51:30.386Z,60.70
2018-05-10T13:54:03.991Z,60.00
2018-05-10T13:56:37.578Z,59.90
2018-05-10T13:59:11.266Z,58.90
2018-05-10T14:01:44.962Z,58.30
2018-05-10T14:04:18.670Z,59.00
2018-05-10T14:06:52.198Z,58.90
2018-05-10T14:09:25.996Z,59.00
2018-05-10T14:11:59.815Z,59.40
2018-05-10T14:14:34.234Z,59.90
2018-05-10T14:17:07.828Z,59.50
2018-05-10T14:19:42.247Z,59.40
2018-05-10T14:22:16.053Z,59.40
2018-05-10T14:24:49.858Z,59.70
2018-05-10T14:27:24.368Z,61.30
2018-05-10T14:29:58.083Z,61.30
2018-05-10T14:32:32.943Z,59.90
2018-05-10T14:35:06.516Z,59.80
2018-05-10T14:37:40.318Z,60.90
2018-05-10T14:40:13.991Z,61.30
2018-05-10T14:42:47.699Z,60.90
2018-05-10T14:45:21.327Z,62.60
2018-05-10T14:47:55.014Z,62.90
2018-05-10T14:50:29.407Z,64.50
2018-05-10T14:53:02.982Z,64.40
2018-05-10T14:55:37.367Z,64.50
2018-05-10T14:58:10.966Z,64.50
2018-05-10T15:00:45.254Z,65.70
2018-05-10T15:03:19.087Z,65.50
2018-05-10T15:05:53.486Z,64.80
2018-05-10T15:08:27.132Z,64.80
2018-05-10T15:11:00.814Z,65.10
2018-05-10T15:13:34.529Z,64.30
2018-05-10T15:16:08.226Z,65.00
2018-05-10T15:18:41.830Z,64.30
2018-05-10T15:21:15.426Z,64.60
2018-05-10T15:23:49.742Z,64.30
2018-05-10T15:26:23.439Z,64.30
2018-05-10T15:28:57.062Z,65.20
2018-05-10T15:31:30.734Z,64.30
2018-05-10T15:34:04.451Z,64.40
2018-05-10T15:36:38.020Z,64.20
2018-05-10T15:39:11.755Z,64.90
2018-05-10T15:41:45.940Z,65.20
2018-05-10T15:44:19.631Z,65.20
2018-05-10T15:46:53.156Z,66.70
2018-05-10T15:49:26.869Z,66.90
2018-05-10T15:52:00.682Z,67.30
2018-05-10T15:54:34.307Z,68.50
2018-05-10T15:57:08.090Z,68.50
2018-05-10T15:59:42.013Z,67.40
2018-05-10T16:02:15.707Z,66.80
2018-05-10T16:04:49.394Z,67.10
2018-05-10T16:07:23.054Z,66.60
2018-05-10T16:09:56.570Z,66.60
2018-05-10T16:12:30.143Z,67.00
2018-05-10T16:15:03.681Z,66.70
2018-05-10T16:17:37.202Z,67.30
2018-05-10T16:20:10.908Z,66.90
2018-05-10T16:22:45.328Z,66.50
2018-05-10T16:25:19.136Z,66.40
2018-05-10T16:27:53.758Z,67.00
2018-05-10T16:30:27.466Z,67.00
2018-05-10T16:33:01.167Z,66.90
2018-05-10T16:35:34.682Z,65.80
2018-05-10T16:38:09.185Z,65.70
2018-05-10T16:40:42.697Z,65.50
2018-05-10T16:43:16.216Z,66.30
2018-05-10T16:45:49.803Z,65.30
2018-05-10T16:48:23.399Z,64.50
2018-05-10T16:50:57.184Z,64.80
2018-05-10T16:53:30.955Z,63.40
2018-05-10T16:56:04.559Z,63.30
2018-05-10T16:58:38.083Z,63.20
2018-05-10T17:01:11.796Z,63.90
2018-05-10T17:03:45.296Z,63.60
2018-05-10T17:06:18.812Z,64.10
2018-05-10T17:08:52.403Z,63.80
2018-05-10T17:11:26.173Z,63.90
2018-05-10T17:13:59.706Z,63.70
2018-05-10T17:16:33.410Z,63.70
2018-05-10T17:19:08.035Z,61.70
2018-05-10T17:21:41.701Z,61.60
2018-05-10T17:24:15.427Z,60.00
2018-05-10T17:26:49.243Z,60.20
2018-05-10T17:29:22.981Z,60.50
2018-05-10T17:31:56.642Z,59.90
2018-05-10T17:34:30.930Z,60.70
2018-05-10T17:37:04.494Z,60.60
2018-05-10T17:39:38.063Z,60.20
2018-05-10T17:42:12.379Z,60.70
2018-05-10T17:44:46.287Z,60.70
2018-05-10T17:47:19.825Z,61.10
2018-05-10T17:49:53.562Z,60.90
2018-05-10T17:52:27.183Z,61.10
2018-05-10T17:55:00.892Z,62.00
2018-05-10T17:57:34.460Z,60.70
2018-05-10T18:00:08.293Z,60.80
2018-05-10T18:02:41.908Z,61.10
2018-05-10T18:05:15.507Z,59.70
2018-05-10T18:07:49.923Z,58.40
2018-05-10T18:10:23.594Z,58.20
2018-05-10T18:12:57.190Z,58.70
2018-05-10T18:15:30.723Z,58.30
2018-05-10T18:18:04.322Z,59.00
2018-05-10T18:20:38.132Z,58.40
2018-05-10T18:23:11.987Z,58.90
2018-05-10T18:25:46.435Z,58.40
2018-05-10T18:28:20.869Z,58.40
2018-05-10T18:30:54.590Z,58.40
2018-05-10T18:33:28.321Z,58.20
2018-05-10T18:36:02.083Z,58.00
2018-05-10T18:38:35.799Z,58.60
2018-05-10T18:41:09.467Z,58.60
2018-05-10T18:43:42.998Z,58.40
2018-05-10T18:46:16.806Z,58.50
2018-05-10T18:48:50.630Z,58.30
2018-05-10T18:51:24.158Z,57.90
2018-05-10T18:53:57.806Z,58.90
2018-05-10T18:56:31.406Z,58.70
2018-05-10T18:59:05.242Z,58.90
2018-05-10T19:01:38.819Z,58.40
2018-05-10T19:04:12.626Z,58.60
2018-05-10T19:06:46.910Z,59.10
2018-05-10T19:09:20.842Z,59.10
2018-05-10T19:11:54.523Z,59.70
2018-05-10T19:14:28.258Z,59.20
2018-05-10T19:17:02.651Z,59.50
2018-05-10T19:19:37.095Z,59.50
2018-05-10T19:22:10.762Z,59.50
2018-05-10T19:24:44.294Z,59.80
2018-05-10T19:27:18.920Z,59.90
2018-05-10T19:29:52.722Z,60.20
2018-05-10T19:32:26.334Z,60.40
2018-05-10T19:34:59.923Z,60.60
2018-05-10T19:37:34.554Z,60.80
2018-05-10T19:40:08.356Z,60.80
2018-05-10T19:42:42.364Z,60.90
2018-05-10T19:45:16.216Z,61.00
2018-05-10T19:47:49.979Z,60.70
2018-05-10T19:50:23.604Z,60.90
2018-05-10T19:52:57.295Z,60.80
2018-05-10T19:55:30.836Z,61.20
2018-05-10T19:58:04.327Z,61.80
2018-05-10T20:00:37.991Z,61.80
2018-05-10T20:03:11.583Z,61.30
2018-05-10T20:05:45.390Z,61.00
2018-05-10T20:08:18.912Z,61.40
2018-05-10T20:10:52.480Z,61.50
2018-05-10T20:13:26.060Z,61.60
2018-05-10T20:15:59.562Z,61.40
2018-05-10T20:18:33.072Z,63.40
2018-05-10T20:21:06.732Z,63.30
2018-05-10T20:23:43.746Z,63.30
2018-05-10T20:26:17.495Z,62.90
2018-05-10T20:28:51.033Z,63.30
2018-05-10T20:31:24.671Z,63.50
2018-05-10T20:33:58.185Z,63.30
2018-05-10T20:36:31.780Z,64.80
2018-05-10T20:39:05.318Z,64.50
2018-05-10T20:41:40.585Z,64.00
2018-05-10T20:44:14.106Z,64.00
2018-05-10T20:46:47.626Z,64.50
2018-05-10T20:49:21.999Z,64.50
2018-05-10T20:51:55.943Z,64.50
2018-05-10T20:54:29.430Z,63.90
2018-05-10T20:57:03.139Z,64.40
2018-05-10T20:59:36.642Z,65.10
2018-05-10T21:02:10.334Z,65.40
2018-05-10T21:04:43.942Z,65.40
2018-05-10T21:07:17.543Z,65.40
2018-05-10T21:09:51.215Z,65.90
2018-05-10T21:12:47.691Z,65.90
2018-05-10T21:15:21.367Z,66.20
2018-05-10T21:17:55.097Z,66.20
2018-05-10T21:20:29.595Z,66.50
2018-05-10T21:23:03.399Z,66.40
2018-05-10T21:25:37.598Z,67.30
2018-05-10T21:28:11.360Z,67.10
2018-05-10T21:30:44.834Z,67.80
2018-05-10T21:33:18.535Z,67.80
2018-05-10T21:35:52.139Z,67.50
2018-05-10T21:38:25.943Z,68.00
2018-05-10T21:40:59.748Z,67.90
2018-05-10T21:43:33.271Z,68.10
2018-05-10T21:46:06.824Z,68.70
2018-05-10T21:48:41.258Z,69.10
2018-05-10T21:51:14.867Z,69.10
2018-05-10T21:53:48.451Z,68.90
2018-05-10T21:56:22.053Z,69.00
2018-05-10T21:58:55.655Z,69.20
2018-05-10T22:01:29.454Z,69.00
2018-05-10T22:04:03.181Z,69.40
2018-05-10T22:06:36.683Z,69.40
2018-05-10T22:09:10.417Z,69.30
2018-05-10T22:11:44.012Z,69.20
2018-05-10T22:14:17.811Z,69.30
2018-05-10T22:16:51.458Z,69.40
2018-05-10T22:19:25.091Z,69.60
2018-05-10T22:21:58.674Z,69.90
2018-05-10T22:24:32.468Z,70.70
2018-05-10T22:27:06.690Z,70.40
2018-05-10T22:29:40.389Z,70.20
2018-05-10T22:32:13.883Z,70.10
2018-05-10T22:34:47.515Z,70.40
2018-05-10T22:37:21.121Z,69.90
2018-05-10T22:39:54.704Z,70.60
2018-05-10T22:42:28.282Z,70.80
2018-05-10T22:45:02.092Z,70.60
2018-05-10T22:47:35.650Z,70.50
2018-05-10T22:50:10.115Z,70.00
2018-05-10T22:52:43.795Z,70.00
2018-05-10T22:55:17.460Z,69.70
2018-05-10T22:57:51.766Z,69.10
2018-05-10T23:00:25.463Z,69.00
2018-05-10T23:02:59.778Z,69.10
2018-05-10T23:05:33.698Z,68.90
2018-05-10T23:08:07.294Z,69.10
2018-05-10T23:10:41.112Z,69.20
2018-05-10T23:13:15.738Z,68.90
2018-05-10T23:15:49.398Z,68.90
2018-05-10T23:18:23.222Z,68.50
2018-05-10T23:20:56.945Z,68.60
2018-05-10T23:23:30.539Z,69.40
2018-05-10T23:26:04.019Z,69.90
2018-05-10T23:28:37.618Z,69.20
2018-05-10T23:31:11.347Z,69.80
2018-05-10T23:33:45.034Z,69.30
2018-05-10T23:36:18.547Z,69.50
2018-05-10T23:38:52.236Z,69.10
2018-05-10T23:41:25.818Z,69.30
2018-05-10T23:43:59.553Z,69.60
2018-05-10T23:46:33.230Z,70.00
2018-05-10T23:49:06.962Z,70.10
2018-05-10T23:51:40.570Z,70.40
2018-05-10T23:54:14.143Z,71.60
2018-05-10T23:56:47.764Z,71.80
2018-05-10T23:59:21.476Z,72.10
